DONNELLS (DON)

Elevation: 4835' · STANISLAUS R basin · Operator: US Bureau of Reclamation

Provisional data, subject to change.
Query executed Tuesday at 17:51:14   clock

Select a sensor type for a plot of data.
Note: Reservoir Flows are daily averages.

Earlier

Date STORAGE    RES CHG    OUTFLOW   
 AF   AF   CFS  
06/30/2014 63057 -37 152
07/01/2014 63057 0 113
07/02/2014 63006 -51 152
07/03/2014 62932 -74 146
07/04/2014 62877 -55 120
07/05/2014 62780 -97 139
07/06/2014 62655 -125 167
07/07/2014 62592 -63 107
07/08/2014 62597 5 89
07/09/2014 62584 -13 103
07/10/2014 62597 13 63
07/11/2014 62618 21 81
07/12/2014 62576 -42 104
07/13/2014 62467 -109 150
07/14/2014 62329 -138 156
07/15/2014 62313 -16 129
07/16/2014 62459 146 111
07/17/2014 62547 88 82
07/18/2014 62547 0 136
07/19/2014 62455 -92 156
07/20/2014 62752 297 106
07/21/2014 63111 359 136
07/22/2014 63149 38 144
07/23/2014 63107 -42 141
07/24/2014 62835 -272 274
07/25/2014 62446 -389 292
07/26/2014 62480 34 263
07/27/2014 62092 -388 398
07/28/2014 61746 -346 287
07/29/2014 -- -- --

Later | Latest

Warning! This data is preliminary and subject to revision.

Download Data Now Download Data Now | Show DON Map | Plot DON Data | 1 Month DON Data | Real-Time DON Data | DON Info